AAY2317 KPBI-KBNA
Flight info
| Callsign | AAY2317 |
|---|---|
| Flight time | 1h 49m |
| Altitude | 36000 |
| Route | TBIRD7 KPASA Q118 THRSR SWFFT3 |
| Aircraft | A320/M-SDE3FGHIRWY/LB1 |
Departure
| Time | 2026-04-22 14:57 |
|---|---|
| Airport | Palm Beach International Airport (KPBI) |
Arrival
| Time | 2026-04-22 16:46 |
|---|---|
| Airport | Nashville International Airport (KBNA) |
| Time | Latitude | Longitude | Altitude | Speed | Heading |
|---|---|---|---|---|---|
| 2026-04-22 14:42 | 26.68656 | -80.09388 | 29 ft | 0 kts | 66° |
| 2026-04-22 14:49 | 26.68655 | -80.09390 | 29 ft | 1 kts | 65° |
| 2026-04-22 14:49 | 26.68647 | -80.09407 | 29 ft | 3 kts | 55° |
| 2026-04-22 14:49 | 26.68634 | -80.09424 | 29 ft | 3 kts | 37° |
| 2026-04-22 14:49 | 26.68618 | -80.09434 | 29 ft | 3 kts | 8° |
| 2026-04-22 14:50 | 26.68601 | -80.09434 | 29 ft | 2 kts | 327° |
| 2026-04-22 14:50 | 26.68596 | -80.09430 | 29 ft | 0 kts | 318° |
| 2026-04-22 14:52 | 26.68603 | -80.09437 | 29 ft | 8 kts | 317° |
| 2026-04-22 14:52 | 26.68681 | -80.09519 | 29 ft | 17 kts | 314° |
| 2026-04-22 14:53 | 26.68673 | -80.09624 | 30 ft | 14 kts | 240° |
| 2026-04-22 14:53 | 26.68647 | -80.09720 | 31 ft | 12 kts | 262° |
| 2026-04-22 14:53 | 26.68633 | -80.09861 | 32 ft | 31 kts | 263° |
| 2026-04-22 14:53 | 26.68608 | -80.10085 | 30 ft | 25 kts | 262° |
| 2026-04-22 14:54 | 26.68582 | -80.10273 | 30 ft | 23 kts | 261° |
| 2026-04-22 14:54 | 26.68555 | -80.10446 | 28 ft | 22 kts | 262° |
| 2026-04-22 14:54 | 26.68559 | -80.10621 | 24 ft | 23 kts | 273° |
| 2026-04-22 14:54 | 26.68564 | -80.10753 | 24 ft | 14 kts | 265° |
| 2026-04-22 14:55 | 26.68506 | -80.10816 | 24 ft | 12 kts | 187° |
| 2026-04-22 14:55 | 26.68466 | -80.10819 | 23 ft | 0 kts | 182° |
| 2026-04-22 14:55 | 26.68464 | -80.10819 | 23 ft | 1 kts | 182° |
| 2026-04-22 14:55 | 26.68453 | -80.10820 | 23 ft | 2 kts | 182° |
| 2026-04-22 14:56 | 26.68432 | -80.10821 | 23 ft | 11 kts | 183° |
| 2026-04-22 14:56 | 26.68320 | -80.10778 | 22 ft | 18 kts | 102° |
| 2026-04-22 14:56 | 26.68311 | -80.10611 | 25 ft | 40 kts | 92° |
| 2026-04-22 14:56 | 26.68287 | -80.10041 | 34 ft | 104 kts | 92° |
| 2026-04-22 14:57 | 26.68246 | -80.09041 | 91 ft | 147 kts | 92° |
| 2026-04-22 14:57 | 26.68201 | -80.07868 | 652 ft | 155 kts | 95° |
| 2026-04-22 14:57 | 26.68169 | -80.06660 | 1423 ft | 155 kts | 91° |
| 2026-04-22 14:57 | 26.68191 | -80.05445 | 2121 ft | 164 kts | 82° |
| 2026-04-22 14:58 | 26.68635 | -80.04180 | 2495 ft | 188 kts | 64° |
| 2026-04-22 14:58 | 26.69285 | -80.02821 | 2826 ft | 209 kts | 64° |
| 2026-04-22 14:58 | 26.69999 | -80.01308 | 3197 ft | 231 kts | 64° |
| 2026-04-22 14:58 | 26.70797 | -79.99711 | 3778 ft | 246 kts | 57° |
| 2026-04-22 14:59 | 26.71994 | -79.98312 | 4606 ft | 253 kts | 40° |
| 2026-04-22 14:59 | 26.73564 | -79.97357 | 5424 ft | 263 kts | 21° |
| 2026-04-22 14:59 | 26.75396 | -79.96954 | 6202 ft | 273 kts | 7° |
| 2026-04-22 14:59 | 26.77320 | -79.97202 | 6968 ft | 285 kts | 345° |
| 2026-04-22 15:00 | 26.79048 | -79.98308 | 7779 ft | 290 kts | 318° |
| 2026-04-22 15:00 | 26.80223 | -80.00141 | 8572 ft | 295 kts | 293° |
| 2026-04-22 15:00 | 26.80912 | -80.02306 | 9436 ft | 295 kts | 289° |
| 2026-04-22 15:00 | 26.81573 | -80.04479 | 10319 ft | 296 kts | 289° |
| 2026-04-22 15:01 | 26.82264 | -80.06750 | 10563 ft | 320 kts | 289° |
| 2026-04-22 15:01 | 26.83011 | -80.09187 | 10743 ft | 343 kts | 289° |
| 2026-04-22 15:01 | 26.83814 | -80.11796 | 10871 ft | 365 kts | 289° |
| 2026-04-22 15:01 | 26.84649 | -80.14498 | 11272 ft | 376 kts | 289° |
| 2026-04-22 15:02 | 26.85509 | -80.17280 | 11909 ft | 380 kts | 288° |
| 2026-04-22 15:02 | 26.86374 | -80.20083 | 12605 ft | 382 kts | 288° |
| 2026-04-22 15:02 | 26.87244 | -80.22907 | 13296 ft | 384 kts | 288° |
| 2026-04-22 15:02 | 26.88115 | -80.25747 | 13948 ft | 387 kts | 288° |
| 2026-04-22 15:03 | 26.88995 | -80.28614 | 14519 ft | 390 kts | 288° |
| 2026-04-22 15:03 | 26.89949 | -80.31470 | 15063 ft | 393 kts | 294° |
| 2026-04-22 15:03 | 26.91365 | -80.34103 | 15610 ft | 397 kts | 306° |
| 2026-04-22 15:03 | 26.93260 | -80.36368 | 16193 ft | 400 kts | 317° |
| 2026-04-22 15:04 | 26.95556 | -80.38158 | 16750 ft | 405 kts | 329° |
| 2026-04-22 15:04 | 26.98119 | -80.39408 | 17293 ft | 410 kts | 337° |
| 2026-04-22 15:04 | 27.00795 | -80.40552 | 17811 ft | 413 kts | 337° |
| 2026-04-22 15:04 | 27.03484 | -80.41702 | 18324 ft | 415 kts | 336° |
| 2026-04-22 15:05 | 27.06194 | -80.42865 | 18769 ft | 418 kts | 336° |
| 2026-04-22 15:05 | 27.08914 | -80.44036 | 19227 ft | 420 kts | 336° |
| 2026-04-22 15:05 | 27.11639 | -80.45211 | 19699 ft | 420 kts | 336° |
| 2026-04-22 15:05 | 27.14372 | -80.46393 | 20172 ft | 421 kts | 336° |
| 2026-04-22 15:06 | 27.16183 | -80.47179 | 20488 ft | 422 kts | 336° |
| 2026-04-22 15:06 | 27.19840 | -80.48820 | 21103 ft | 424 kts | 335° |
| 2026-04-22 15:06 | 27.22573 | -80.50084 | 21547 ft | 425 kts | 334° |
| 2026-04-22 15:06 | 27.25265 | -80.51344 | 21983 ft | 425 kts | 334° |
| 2026-04-22 15:07 | 27.27999 | -80.52627 | 22411 ft | 426 kts | 334° |
| 2026-04-22 15:07 | 27.30743 | -80.53906 | 22823 ft | 428 kts | 334° |
| 2026-04-22 15:07 | 27.33490 | -80.55200 | 23265 ft | 428 kts | 333° |
| 2026-04-22 15:07 | 27.36222 | -80.56551 | 23705 ft | 429 kts | 332° |
| 2026-04-22 15:08 | 27.38942 | -80.57944 | 24044 ft | 430 kts | 332° |
| 2026-04-22 15:08 | 27.41661 | -80.59355 | 24381 ft | 431 kts | 332° |
| 2026-04-22 15:08 | 27.44396 | -80.60773 | 24685 ft | 433 kts | 332° |
| 2026-04-22 15:08 | 27.47138 | -80.62193 | 24988 ft | 435 kts | 332° |
| 2026-04-22 15:09 | 27.49890 | -80.63618 | 25270 ft | 435 kts | 330° |
| 2026-04-22 15:09 | 27.52457 | -80.65313 | 25537 ft | 433 kts | 321° |
| 2026-04-22 15:09 | 27.54791 | -80.67442 | 25819 ft | 432 kts | 316° |
| 2026-04-22 15:09 | 27.57051 | -80.69683 | 26095 ft | 433 kts | 315° |
| 2026-04-22 15:10 | 27.59320 | -80.71932 | 26370 ft | 435 kts | 315° |
| 2026-04-22 15:10 | 27.61596 | -80.74184 | 26639 ft | 436 kts | 315° |
| 2026-04-22 15:10 | 27.63879 | -80.76440 | 26983 ft | 436 kts | 315° |
| 2026-04-22 15:10 | 27.66155 | -80.78688 | 27391 ft | 434 kts | 315° |
| 2026-04-22 15:11 | 27.68420 | -80.80929 | 27795 ft | 432 kts | 315° |
| 2026-04-22 15:11 | 27.70672 | -80.83165 | 28196 ft | 431 kts | 315° |
| 2026-04-22 15:11 | 27.72918 | -80.85399 | 28600 ft | 429 kts | 315° |
| 2026-04-22 15:11 | 27.75121 | -80.87590 | 29001 ft | 428 kts | 314° |
| 2026-04-22 15:12 | 27.77349 | -80.89805 | 29429 ft | 426 kts | 314° |
| 2026-04-22 15:12 | 27.79569 | -80.92012 | 29832 ft | 425 kts | 314° |
| 2026-04-22 15:12 | 27.81781 | -80.94211 | 30262 ft | 423 kts | 314° |
| 2026-04-22 15:12 | 27.84105 | -80.96262 | 30604 ft | 425 kts | 319° |
| 2026-04-22 15:13 | 27.86507 | -80.98196 | 30936 ft | 424 kts | 319° |
| 2026-04-22 15:13 | 27.88904 | -81.00128 | 31268 ft | 422 kts | 319° |
| 2026-04-22 15:13 | 27.91291 | -81.02056 | 31610 ft | 421 kts | 319° |
| 2026-04-22 15:13 | 27.93671 | -81.03978 | 31947 ft | 420 kts | 319° |
| 2026-04-22 15:14 | 27.96040 | -81.05892 | 32275 ft | 418 kts | 319° |
| 2026-04-22 15:14 | 27.98405 | -81.07805 | 32622 ft | 417 kts | 319° |
| 2026-04-22 15:14 | 28.00731 | -81.09687 | 32951 ft | 416 kts | 319° |
| 2026-04-22 15:14 | 28.03084 | -81.11588 | 33288 ft | 415 kts | 319° |
| 2026-04-22 15:15 | 28.05427 | -81.13482 | 33618 ft | 413 kts | 319° |
| 2026-04-22 15:15 | 28.07762 | -81.15372 | 33959 ft | 412 kts | 319° |
| 2026-04-22 15:15 | 28.09942 | -81.17432 | 34287 ft | 405 kts | 309° |
| 2026-04-22 15:15 | 28.11692 | -81.19898 | 34523 ft | 400 kts | 299° |
| 2026-04-22 15:16 | 28.12965 | -81.22672 | 34803 ft | 395 kts | 289° |
| 2026-04-22 15:16 | 28.13733 | -81.25640 | 35076 ft | 392 kts | 279° |
| 2026-04-22 15:16 | 28.14027 | -81.28705 | 35337 ft | 391 kts | 274° |
| 2026-04-22 15:16 | 28.14208 | -81.31728 | 35614 ft | 389 kts | 274° |
| 2026-04-22 15:17 | 28.14392 | -81.34780 | 35894 ft | 387 kts | 274° |
| 2026-04-22 15:17 | 28.14572 | -81.37819 | 36158 ft | 386 kts | 274° |
| 2026-04-22 15:17 | 28.14750 | -81.40853 | 36282 ft | 386 kts | 274° |
| 2026-04-22 15:17 | 28.14929 | -81.43901 | 36308 ft | 389 kts | 274° |
| 2026-04-22 15:18 | 28.15290 | -81.50039 | 36306 ft | 391 kts | 274° |
| 2026-04-22 15:18 | 28.15647 | -81.56149 | 36304 ft | 391 kts | 274° |
| 2026-04-22 15:19 | 28.15999 | -81.62298 | 36290 ft | 391 kts | 274° |
| 2026-04-22 15:19 | 28.16354 | -81.68451 | 36284 ft | 391 kts | 274° |
| 2026-04-22 15:20 | 28.16706 | -81.74601 | 36289 ft | 391 kts | 274° |
| 2026-04-22 15:20 | 28.17050 | -81.80719 | 36289 ft | 392 kts | 274° |
| 2026-04-22 15:21 | 28.17674 | -81.86834 | 36294 ft | 392 kts | 285° |
| 2026-04-22 15:21 | 28.18689 | -81.89706 | 36295 ft | 395 kts | 296° |
| 2026-04-22 15:21 | 28.20248 | -81.92287 | 36297 ft | 401 kts | 307° |
| 2026-04-22 15:22 | 28.22308 | -81.94460 | 36294 ft | 409 kts | 318° |
| 2026-04-22 15:22 | 28.24648 | -81.96313 | 36295 ft | 411 kts | 319° |
| 2026-04-22 15:22 | 28.29311 | -81.99994 | 36292 ft | 411 kts | 319° |
| 2026-04-22 15:23 | 28.34010 | -82.03715 | 36295 ft | 412 kts | 319° |
| 2026-04-22 15:23 | 28.38718 | -82.07442 | 36299 ft | 413 kts | 319° |
| 2026-04-22 15:24 | 28.43426 | -82.11183 | 36299 ft | 413 kts | 319° |
| 2026-04-22 15:24 | 28.48105 | -82.14897 | 36315 ft | 413 kts | 319° |
| 2026-04-22 15:25 | 28.52811 | -82.18645 | 36308 ft | 413 kts | 319° |
| 2026-04-22 15:25 | 28.57521 | -82.22400 | 36306 ft | 413 kts | 319° |
| 2026-04-22 15:26 | 28.62232 | -82.26153 | 36312 ft | 413 kts | 319° |
| 2026-04-22 15:26 | 28.66908 | -82.29887 | 36315 ft | 413 kts | 318° |
| 2026-04-22 15:27 | 28.71612 | -82.33654 | 36318 ft | 414 kts | 318° |
| 2026-04-22 15:27 | 28.76322 | -82.37420 | 36338 ft | 413 kts | 319° |
| 2026-04-22 15:28 | 28.81015 | -82.41172 | 36324 ft | 412 kts | 319° |
| 2026-04-22 15:28 | 28.85678 | -82.44908 | 36299 ft | 412 kts | 319° |
| 2026-04-22 15:29 | 28.90371 | -82.48675 | 36297 ft | 412 kts | 318° |
| 2026-04-22 15:30 | 28.96606 | -82.53693 | 36306 ft | 412 kts | 318° |
| 2026-04-22 15:30 | 29.02058 | -82.58079 | 36303 ft | 413 kts | 318° |
| 2026-04-22 15:31 | 29.06754 | -82.61856 | 36328 ft | 413 kts | 318° |
| 2026-04-22 15:31 | 29.11448 | -82.65647 | 36320 ft | 413 kts | 318° |
| 2026-04-22 15:32 | 29.16136 | -82.69449 | 36315 ft | 413 kts | 318° |
| 2026-04-22 15:32 | 29.20803 | -82.73225 | 36317 ft | 414 kts | 318° |
| 2026-04-22 15:33 | 29.25504 | -82.77027 | 36315 ft | 414 kts | 318° |
| 2026-04-22 15:33 | 29.30208 | -82.80832 | 36324 ft | 414 kts | 318° |
| 2026-04-22 15:34 | 29.34903 | -82.84643 | 36348 ft | 414 kts | 318° |
| 2026-04-22 15:34 | 29.39600 | -82.88467 | 36334 ft | 414 kts | 318° |
| 2026-04-22 15:35 | 29.43502 | -82.91641 | 36331 ft | 414 kts | 318° |
| 2026-04-22 15:35 | 29.48957 | -82.96076 | 36319 ft | 414 kts | 318° |
| 2026-04-22 15:36 | 29.53989 | -82.99384 | 36318 ft | 425 kts | 330° |
| 2026-04-22 15:36 | 29.59417 | -83.01962 | 36313 ft | 425 kts | 330° |
| 2026-04-22 15:37 | 29.64881 | -83.04561 | 36337 ft | 425 kts | 330° |
| 2026-04-22 15:37 | 29.70353 | -83.07171 | 36327 ft | 426 kts | 330° |
| 2026-04-22 15:38 | 29.75822 | -83.09791 | 36322 ft | 426 kts | 330° |
| 2026-04-22 15:38 | 29.84008 | -83.13701 | 36320 ft | 427 kts | 330° |
| 2026-04-22 15:39 | 29.89490 | -83.16326 | 36323 ft | 427 kts | 330° |
| 2026-04-22 15:39 | 29.94974 | -83.18960 | 36351 ft | 427 kts | 330° |
| 2026-04-22 15:40 | 30.00465 | -83.21597 | 36341 ft | 428 kts | 330° |
| 2026-04-22 15:40 | 30.05962 | -83.24234 | 36333 ft | 428 kts | 330° |
| 2026-04-22 15:41 | 30.11422 | -83.26865 | 36329 ft | 428 kts | 330° |
| 2026-04-22 15:41 | 30.16921 | -83.29516 | 36329 ft | 428 kts | 330° |
| 2026-04-22 15:42 | 30.22426 | -83.32172 | 36327 ft | 428 kts | 330° |
| 2026-04-22 15:42 | 30.27930 | -83.34828 | 36335 ft | 429 kts | 330° |
| 2026-04-22 15:43 | 30.33412 | -83.37469 | 36330 ft | 430 kts | 330° |
| 2026-04-22 15:43 | 30.38932 | -83.40135 | 36326 ft | 430 kts | 330° |
| 2026-04-22 15:44 | 30.44452 | -83.42812 | 36325 ft | 430 kts | 330° |
| 2026-04-22 15:44 | 30.49972 | -83.45496 | 36328 ft | 430 kts | 330° |
| 2026-04-22 15:45 | 30.55455 | -83.48164 | 36318 ft | 430 kts | 330° |
| 2026-04-22 15:45 | 30.60976 | -83.50851 | 36324 ft | 430 kts | 330° |
| 2026-04-22 15:46 | 30.66499 | -83.53529 | 36314 ft | 430 kts | 330° |
| 2026-04-22 15:46 | 30.72025 | -83.56214 | 36307 ft | 431 kts | 330° |
| 2026-04-22 15:47 | 30.77513 | -83.58897 | 36315 ft | 431 kts | 330° |
| 2026-04-22 15:47 | 30.83044 | -83.61603 | 36342 ft | 431 kts | 330° |
| 2026-04-22 15:48 | 30.88582 | -83.64315 | 36327 ft | 432 kts | 330° |
| 2026-04-22 15:48 | 30.94125 | -83.67030 | 36322 ft | 433 kts | 331° |
| 2026-04-22 15:49 | 30.99642 | -83.69723 | 36323 ft | 433 kts | 331° |
| 2026-04-22 15:49 | 31.05187 | -83.72444 | 36325 ft | 432 kts | 330° |
| 2026-04-22 15:50 | 31.10729 | -83.75176 | 36344 ft | 432 kts | 331° |
| 2026-04-22 15:50 | 31.16271 | -83.77910 | 36333 ft | 432 kts | 331° |
| 2026-04-22 15:51 | 31.21816 | -83.80647 | 36327 ft | 433 kts | 331° |
| 2026-04-22 15:51 | 31.27326 | -83.83360 | 36317 ft | 433 kts | 331° |
| 2026-04-22 15:52 | 31.32874 | -83.86093 | 36311 ft | 433 kts | 331° |
| 2026-04-22 15:52 | 31.38420 | -83.88839 | 36327 ft | 433 kts | 331° |
| 2026-04-22 15:53 | 31.43964 | -83.91590 | 36330 ft | 433 kts | 332° |
| 2026-04-22 15:53 | 31.49474 | -83.94325 | 36316 ft | 433 kts | 332° |
| 2026-04-22 15:54 | 31.55284 | -83.96400 | 36313 ft | 442 kts | 344° |
| 2026-04-22 15:54 | 31.61339 | -83.97728 | 36314 ft | 443 kts | 344° |
| 2026-04-22 15:55 | 31.67397 | -83.99071 | 36306 ft | 443 kts | 345° |
| 2026-04-22 15:55 | 31.73452 | -84.00424 | 36308 ft | 443 kts | 345° |
| 2026-04-22 15:56 | 31.79469 | -84.01764 | 36303 ft | 443 kts | 345° |
| 2026-04-22 15:56 | 31.85533 | -84.03119 | 36314 ft | 444 kts | 345° |
| 2026-04-22 15:57 | 31.91601 | -84.04478 | 36297 ft | 444 kts | 345° |
| 2026-04-22 15:57 | 31.97675 | -84.05835 | 36309 ft | 444 kts | 346° |
| 2026-04-22 15:58 | 32.03703 | -84.07179 | 36306 ft | 444 kts | 346° |
| 2026-04-22 15:58 | 32.09765 | -84.08538 | 36296 ft | 443 kts | 346° |
| 2026-04-22 15:59 | 32.15823 | -84.09899 | 36297 ft | 443 kts | 346° |
| 2026-04-22 15:59 | 32.21875 | -84.11265 | 36309 ft | 443 kts | 347° |
| 2026-04-22 16:00 | 32.27880 | -84.12622 | 36310 ft | 442 kts | 347° |
| 2026-04-22 16:00 | 32.33924 | -84.13983 | 36297 ft | 442 kts | 347° |
| 2026-04-22 16:01 | 32.39959 | -84.15341 | 36299 ft | 441 kts | 347° |
| 2026-04-22 16:01 | 32.45988 | -84.16695 | 36292 ft | 441 kts | 347° |
| 2026-04-22 16:02 | 32.51973 | -84.18048 | 36300 ft | 441 kts | 347° |
| 2026-04-22 16:02 | 32.57993 | -84.19421 | 36295 ft | 440 kts | 347° |
| 2026-04-22 16:03 | 32.64011 | -84.20790 | 36302 ft | 440 kts | 347° |
| 2026-04-22 16:03 | 32.69005 | -84.21924 | 36308 ft | 440 kts | 347° |
| 2026-04-22 16:04 | 32.75868 | -84.23950 | 36330 ft | 435 kts | 333° |
| 2026-04-22 16:04 | 32.81315 | -84.27068 | 36331 ft | 434 kts | 333° |
| 2026-04-22 16:05 | 32.86747 | -84.30208 | 36322 ft | 434 kts | 333° |
| 2026-04-22 16:05 | 32.91267 | -84.32827 | 36321 ft | 435 kts | 333° |
| 2026-04-22 16:06 | 32.96708 | -84.35977 | 36322 ft | 435 kts | 333° |
| 2026-04-22 16:06 | 33.03024 | -84.39654 | 36285 ft | 435 kts | 333° |
| 2026-04-22 16:07 | 33.07553 | -84.42280 | 36304 ft | 435 kts | 333° |
| 2026-04-22 16:07 | 33.12992 | -84.45437 | 36309 ft | 435 kts | 333° |
| 2026-04-22 16:08 | 33.18431 | -84.48602 | 36312 ft | 435 kts | 333° |
| 2026-04-22 16:08 | 33.23860 | -84.51772 | 36315 ft | 434 kts | 333° |
| 2026-04-22 16:09 | 33.29290 | -84.54946 | 36317 ft | 434 kts | 333° |
| 2026-04-22 16:09 | 33.34684 | -84.58099 | 36316 ft | 435 kts | 333° |
| 2026-04-22 16:10 | 33.40117 | -84.61277 | 36315 ft | 434 kts | 333° |
| 2026-04-22 16:10 | 33.45542 | -84.64467 | 36311 ft | 434 kts | 333° |
| 2026-04-22 16:11 | 33.50966 | -84.67655 | 36294 ft | 434 kts | 334° |
| 2026-04-22 16:11 | 33.56384 | -84.70844 | 36290 ft | 434 kts | 334° |
| 2026-04-22 16:12 | 33.61761 | -84.74013 | 36293 ft | 433 kts | 334° |
| 2026-04-22 16:12 | 33.67177 | -84.77200 | 36289 ft | 433 kts | 334° |
| 2026-04-22 16:13 | 33.72579 | -84.80389 | 36289 ft | 433 kts | 334° |
| 2026-04-22 16:13 | 33.77987 | -84.83589 | 36295 ft | 433 kts | 334° |
| 2026-04-22 16:14 | 33.83360 | -84.86761 | 36301 ft | 433 kts | 334° |
| 2026-04-22 16:14 | 33.88762 | -84.89971 | 36307 ft | 433 kts | 334° |
| 2026-04-22 16:15 | 33.94167 | -84.93193 | 36308 ft | 433 kts | 334° |
| 2026-04-22 16:15 | 33.99577 | -84.96409 | 36309 ft | 434 kts | 334° |
| 2026-04-22 16:16 | 34.04950 | -84.99608 | 36310 ft | 434 kts | 334° |
| 2026-04-22 16:16 | 34.10356 | -85.02834 | 36310 ft | 434 kts | 334° |
| 2026-04-22 16:17 | 34.15765 | -85.06066 | 36294 ft | 434 kts | 335° |
| 2026-04-22 16:17 | 34.21175 | -85.09300 | 36280 ft | 434 kts | 335° |
| 2026-04-22 16:18 | 34.26550 | -85.12524 | 36286 ft | 434 kts | 334° |
| 2026-04-22 16:18 | 34.31957 | -85.15768 | 36286 ft | 434 kts | 335° |
| 2026-04-22 16:19 | 34.37365 | -85.19007 | 36286 ft | 434 kts | 335° |
| 2026-04-22 16:19 | 34.42771 | -85.22259 | 36293 ft | 434 kts | 335° |
| 2026-04-22 16:20 | 34.48137 | -85.25490 | 36283 ft | 433 kts | 335° |
| 2026-04-22 16:20 | 34.53533 | -85.28752 | 36287 ft | 433 kts | 335° |
| 2026-04-22 16:21 | 34.58929 | -85.32018 | 36283 ft | 433 kts | 335° |
| 2026-04-22 16:21 | 34.64324 | -85.35280 | 36284 ft | 433 kts | 335° |
| 2026-04-22 16:22 | 34.72374 | -85.40168 | 36285 ft | 433 kts | 334° |
| 2026-04-22 16:23 | 34.80463 | -85.45074 | 36277 ft | 433 kts | 335° |
| 2026-04-22 16:23 | 34.85854 | -85.48352 | 36274 ft | 433 kts | 335° |
| 2026-04-22 16:24 | 34.93932 | -85.53278 | 36286 ft | 433 kts | 335° |
| 2026-04-22 16:25 | 34.99269 | -85.56535 | 36293 ft | 431 kts | 335° |
| 2026-04-22 16:25 | 35.07283 | -85.61443 | 36303 ft | 428 kts | 334° |
| 2026-04-22 16:26 | 35.12600 | -85.64707 | 36298 ft | 427 kts | 334° |
| 2026-04-22 16:26 | 35.17919 | -85.67982 | 35837 ft | 433 kts | 335° |
| 2026-04-22 16:27 | 35.20585 | -85.69620 | 35115 ft | 434 kts | 335° |
| 2026-04-22 16:27 | 35.23284 | -85.71275 | 34412 ft | 435 kts | 335° |
| 2026-04-22 16:27 | 35.25990 | -85.72933 | 33626 ft | 435 kts | 335° |
| 2026-04-22 16:27 | 35.28691 | -85.74595 | 32845 ft | 435 kts | 335° |
| 2026-04-22 16:28 | 35.31399 | -85.76270 | 32082 ft | 437 kts | 335° |
| 2026-04-22 16:28 | 35.34119 | -85.77959 | 31165 ft | 441 kts | 335° |
| 2026-04-22 16:28 | 35.36889 | -85.79675 | 29891 ft | 450 kts | 335° |
| 2026-04-22 16:28 | 35.39710 | -85.81419 | 28530 ft | 458 kts | 335° |
| 2026-04-22 16:29 | 35.42538 | -85.83166 | 27229 ft | 464 kts | 334° |
| 2026-04-22 16:29 | 35.45434 | -85.84957 | 25994 ft | 468 kts | 333° |
| 2026-04-22 16:29 | 35.48356 | -85.86766 | 24794 ft | 472 kts | 333° |
| 2026-04-22 16:29 | 35.51288 | -85.88584 | 23613 ft | 474 kts | 332° |
| 2026-04-22 16:30 | 35.53232 | -85.89796 | 23012 ft | 470 kts | 331° |
| 2026-04-22 16:30 | 35.56686 | -85.92947 | 21932 ft | 459 kts | 314° |
| 2026-04-22 16:30 | 35.58852 | -85.95803 | 21055 ft | 455 kts | 313° |
| 2026-04-22 16:30 | 35.60978 | -85.98647 | 20232 ft | 450 kts | 313° |
| 2026-04-22 16:31 | 35.63077 | -86.01475 | 19455 ft | 445 kts | 313° |
| 2026-04-22 16:31 | 35.65154 | -86.04278 | 18702 ft | 441 kts | 313° |
| 2026-04-22 16:31 | 35.67183 | -86.07014 | 17901 ft | 437 kts | 313° |
| 2026-04-22 16:31 | 35.69224 | -86.09759 | 17130 ft | 432 kts | 312° |
| 2026-04-22 16:32 | 35.71213 | -86.12501 | 16390 ft | 427 kts | 308° |
| 2026-04-22 16:32 | 35.73000 | -86.15396 | 15650 ft | 423 kts | 306° |
| 2026-04-22 16:32 | 35.74748 | -86.18279 | 14960 ft | 418 kts | 305° |
| 2026-04-22 16:32 | 35.76463 | -86.21145 | 14493 ft | 409 kts | 305° |
| 2026-04-22 16:33 | 35.78086 | -86.23870 | 14336 ft | 379 kts | 305° |
| 2026-04-22 16:33 | 35.79590 | -86.26387 | 14147 ft | 352 kts | 305° |
| 2026-04-22 16:33 | 35.81014 | -86.28763 | 13765 ft | 340 kts | 305° |
| 2026-04-22 16:33 | 35.82389 | -86.31063 | 13375 ft | 335 kts | 305° |
| 2026-04-22 16:34 | 35.83764 | -86.33365 | 12953 ft | 333 kts | 304° |
| 2026-04-22 16:34 | 35.85132 | -86.35658 | 12524 ft | 331 kts | 304° |
| 2026-04-22 16:34 | 35.86489 | -86.37932 | 12066 ft | 328 kts | 304° |
| 2026-04-22 16:34 | 35.87833 | -86.40187 | 11638 ft | 325 kts | 304° |
| 2026-04-22 16:35 | 35.89165 | -86.42423 | 11266 ft | 322 kts | 304° |
| 2026-04-22 16:35 | 35.90472 | -86.44611 | 11089 ft | 312 kts | 304° |
| 2026-04-22 16:35 | 35.91738 | -86.46725 | 10953 ft | 301 kts | 304° |
| 2026-04-22 16:35 | 35.92958 | -86.48769 | 10865 ft | 291 kts | 304° |
| 2026-04-22 16:36 | 35.94144 | -86.50758 | 10645 ft | 285 kts | 304° |
| 2026-04-22 16:36 | 35.95300 | -86.52702 | 10284 ft | 286 kts | 304° |
| 2026-04-22 16:36 | 35.96473 | -86.54678 | 9983 ft | 283 kts | 304° |
| 2026-04-22 16:36 | 35.97626 | -86.56629 | 9712 ft | 277 kts | 304° |
| 2026-04-22 16:37 | 35.98887 | -86.58378 | 9575 ft | 271 kts | 320° |
| 2026-04-22 16:37 | 36.00560 | -86.59391 | 9394 ft | 270 kts | 344° |
| 2026-04-22 16:37 | 36.02438 | -86.59476 | 9035 ft | 274 kts | 9° |
| 2026-04-22 16:37 | 36.04266 | -86.58790 | 8692 ft | 275 kts | 16° |
| 2026-04-22 16:38 | 36.06045 | -86.58060 | 8478 ft | 269 kts | 16° |
| 2026-04-22 16:38 | 36.07806 | -86.57341 | 8239 ft | 265 kts | 15° |
| 2026-04-22 16:38 | 36.09542 | -86.56637 | 8021 ft | 260 kts | 15° |
| 2026-04-22 16:38 | 36.11251 | -86.55959 | 7744 ft | 257 kts | 14° |
| 2026-04-22 16:39 | 36.12954 | -86.55321 | 7468 ft | 255 kts | 13° |
| 2026-04-22 16:39 | 36.14646 | -86.54703 | 7210 ft | 253 kts | 13° |
| 2026-04-22 16:39 | 36.16333 | -86.54089 | 6942 ft | 251 kts | 13° |
| 2026-04-22 16:39 | 36.18003 | -86.53480 | 6678 ft | 250 kts | 13° |
| 2026-04-22 16:40 | 36.19667 | -86.52871 | 6405 ft | 248 kts | 13° |
| 2026-04-22 16:40 | 36.21317 | -86.52263 | 6132 ft | 247 kts | 12° |
| 2026-04-22 16:40 | 36.24570 | -86.51105 | 5585 ft | 241 kts | 4° |
| 2026-04-22 16:41 | 36.26173 | -86.51307 | 5292 ft | 228 kts | 330° |
| 2026-04-22 16:41 | 36.27460 | -86.52360 | 4988 ft | 220 kts | 312° |
| 2026-04-22 16:41 | 36.28490 | -86.53736 | 4684 ft | 216 kts | 303° |
| 2026-04-22 16:41 | 36.29210 | -86.55344 | 4364 ft | 212 kts | 285° |
| 2026-04-22 16:42 | 36.29349 | -86.57173 | 3917 ft | 217 kts | 259° |
| 2026-04-22 16:42 | 36.28801 | -86.58866 | 3711 ft | 211 kts | 236° |
| 2026-04-22 16:42 | 36.27726 | -86.60082 | 3493 ft | 211 kts | 211° |
| 2026-04-22 16:42 | 36.26351 | -86.60727 | 3240 ft | 212 kts | 201° |
| 2026-04-22 16:43 | 36.24990 | -86.61265 | 2984 ft | 197 kts | 200° |
| 2026-04-22 16:43 | 36.23750 | -86.61759 | 2736 ft | 181 kts | 201° |
| 2026-04-22 16:43 | 36.22636 | -86.62205 | 2510 ft | 158 kts | 202° |
| 2026-04-22 16:43 | 36.21645 | -86.62602 | 2302 ft | 144 kts | 202° |
| 2026-04-22 16:44 | 36.20708 | -86.62979 | 2108 ft | 139 kts | 200° |
| 2026-04-22 16:44 | 36.19790 | -86.63349 | 1915 ft | 140 kts | 202° |
| 2026-04-22 16:44 | 36.18864 | -86.63721 | 1747 ft | 140 kts | 201° |
| 2026-04-22 16:44 | 36.17951 | -86.64088 | 1563 ft | 140 kts | 201° |
| 2026-04-22 16:45 | 36.17006 | -86.64467 | 1366 ft | 141 kts | 202° |
| 2026-04-22 16:45 | 36.16092 | -86.64833 | 1156 ft | 142 kts | 200° |
| 2026-04-22 16:45 | 36.15160 | -86.65206 | 986 ft | 141 kts | 201° |
| 2026-04-22 16:45 | 36.14247 | -86.65573 | 794 ft | 134 kts | 199° |
| 2026-04-22 16:46 | 36.13347 | -86.65940 | 595 ft | 135 kts | 200° |
| 2026-04-22 16:46 | 36.12532 | -86.66267 | 567 ft | 97 kts | 198° |
| 2026-04-22 16:46 | 36.11984 | -86.66485 | 577 ft | 56 kts | 197° |
| 2026-04-22 16:46 | 36.11830 | -86.66587 | 581 ft | 10 kts | 286° |
| 2026-04-22 16:47 | 36.11917 | -86.66650 | 582 ft | 20 kts | 4° |
| 2026-04-22 16:47 | 36.12040 | -86.66603 | 576 ft | 16 kts | 17° |
| 2026-04-22 16:47 | 36.12152 | -86.66562 | 570 ft | 18 kts | 17° |
| 2026-04-22 16:47 | 36.12228 | -86.66634 | 571 ft | 16 kts | 289° |
| 2026-04-22 16:48 | 36.12263 | -86.66767 | 572 ft | 16 kts | 292° |
| 2026-04-22 16:48 | 36.12310 | -86.66899 | 572 ft | 18 kts | 301° |
| 2026-04-22 16:48 | 36.12405 | -86.66991 | 574 ft | 17 kts | 0° |
| 2026-04-22 16:48 | 36.12514 | -86.66946 | 572 ft | 16 kts | 24° |
| 2026-04-22 16:49 | 36.12613 | -86.66891 | 571 ft | 15 kts | 24° |
| 2026-04-22 16:49 | 36.12707 | -86.66835 | 570 ft | 14 kts | 27° |
| 2026-04-22 16:49 | 36.12799 | -86.66792 | 571 ft | 14 kts | 0° |
| 2026-04-22 16:49 | 36.12867 | -86.66853 | 575 ft | 13 kts | 289° |
| 2026-04-22 16:50 | 36.12860 | -86.66919 | 571 ft | 0 kts | 252° |
| 2026-04-22 16:50 | 36.12858 | -86.66923 | 572 ft | 0 kts | 251° |